Time;durP1;ratioP1;P1;durP2;ratioP2;P2;SDS_P1;SDS_P2;PMS_P1;PMS_P2;Temp;Humidity;BMP_temperature;BMP_pressure;BME280_temperature;BME280_humidity;BME280_pressure;Samples;Min_cycle;Max_cycle;Signal;HPM_P1;HPM_P2
2021/01/19 00:03:57;;;;;;;3.10;2.80;;;4.80;42.60;;;;;;10466379;28;20232;-74
2021/01/19 00:08:59;;;;;;;2.67;2.47;;;4.80;42.60;;;;;;10458956;28;20235;-74
2021/01/19 00:14:02;;;;;;;3.30;2.70;;;4.80;42.60;;;;;;10472224;28;20259;-73
2021/01/19 00:19:05;;;;;;;2.70;2.50;;;4.80;42.60;;;;;;10476511;28;20231;-73
2021/01/19 00:24:07;;;;;;;3.77;2.50;;;4.70;42.50;;;;;;10474282;28;20224;-73
2021/01/19 00:29:10;;;;;;;3.03;2.50;;;4.70;42.50;;;;;;10477352;28;20299;-73
2021/01/19 00:34:13;;;;;;;2.80;2.40;;;4.70;42.50;;;;;;10482772;28;20267;-73
2021/01/19 00:39:15;;;;;;;2.20;2.00;;;4.70;42.50;;;;;;10485904;28;20311;-73
2021/01/19 00:44:18;;;;;;;2.70;2.50;;;4.70;42.50;;;;;;10486009;28;20220;-73
2021/01/19 00:49:21;;;;;;;2.20;2.00;;;4.60;42.30;;;;;;10475005;28;23376;-73
2021/01/19 00:54:23;;;;;;;2.57;2.13;;;4.60;42.40;;;;;;10478505;28;20704;-73
2021/01/19 00:59:26;;;;;;;2.37;2.17;;;4.60;42.40;;;;;;10483902;28;20229;-70
2021/01/19 01:04:28;;;;;;;2.80;2.13;;;4.60;42.40;;;;;;10479319;28;20226;-70
2021/01/19 01:09:37;;;;;;;2.43;2.23;;;4.60;42.40;;;;;;10472129;28;20621;-70
2021/01/19 01:14:40;;;;;;;2.57;2.27;;;4.50;42.30;;;;;;10486012;28;20270;-70
2021/01/19 01:19:42;;;;;;;2.57;2.37;;;4.50;42.40;;;;;;10483050;28;20220;-70
2021/01/19 01:24:44;;;;;;;2.30;2.10;;;4.40;42.20;;;;;;10483371;28;20699;-70
2021/01/19 01:29:47;;;;;;;2.90;2.70;;;4.40;42.20;;;;;;10480937;28;20221;-70
2021/01/19 01:34:49;;;;;;;3.00;2.50;;;4.40;42.20;;;;;;10482729;28;20222;-70
2021/01/19 01:39:51;;;;;;;3.40;3.10;;;4.40;42.40;;;;;;10469414;28;20756;-70
2021/01/19 01:44:54;;;;;;;3.37;3.07;;;4.50;42.50;;;;;;10474578;28;20243;-69
2021/01/19 01:49:57;;;;;;;3.30;2.70;;;4.50;42.40;;;;;;10482386;28;20233;-69
2021/01/19 01:55:00;;;;;;;3.30;3.00;;;4.60;42.40;;;;;;10478147;28;20224;-70
2021/01/19 02:00:05;;;;;;;3.27;2.97;;;4.50;42.30;;;;;;10479737;28;20223;-70
2021/01/19 02:05:09;;;;;;;3.87;3.00;;;4.50;42.30;;;;;;10474004;28;20221;-69
2021/01/19 02:10:22;;;;;;;3.53;3.23;;;4.40;42.20;;;;;;10484043;28;20224;-69
2021/01/19 02:15:35;;;;;;;4.63;3.20;;;4.40;42.20;;;;;;10474429;28;20228;-69
2021/01/19 02:20:53;;;;;;;3.23;2.83;;;4.30;42.20;;;;;;10481089;28;20236;-69
2021/01/19 02:26:33;;;;;;;2.90;2.70;;;4.30;42.20;;;;;;10479330;28;20289;-70
2021/01/19 02:32:01;;;;;;;3.33;3.03;;;4.30;42.20;;;;;;10476797;28;20227;-69
2021/01/19 02:37:08;;;;;;;3.93;3.10;;;4.30;42.20;;;;;;10484244;28;20224;-70
2021/01/19 02:42:14;;;;;;;3.00;2.80;;;4.20;42.10;;;;;;10478624;28;20225;-70
2021/01/19 02:47:19;;;;;;;4.03;3.07;;;4.20;42.10;;;;;;10475782;28;20224;-70
2021/01/19 02:52:23;;;;;;;3.50;2.90;;;4.20;42.10;;;;;;10479854;28;20323;-70
2021/01/19 02:57:42;;;;;;;3.20;2.63;;;4.20;42.10;;;;;;10479921;28;20231;-70
2021/01/19 03:02:46;;;;;;;2.80;2.60;;;4.20;42.10;;;;;;10479668;28;20315;-70
2021/01/19 03:07:50;;;;;;;3.40;2.83;;;4.20;42.10;;;;;;10479502;28;20650;-70
2021/01/19 03:12:53;;;;;;;2.90;2.70;;;4.20;42.10;;;;;;10474237;28;20224;-70
2021/01/19 03:17:57;;;;;;;3.53;3.13;;;4.10;42.00;;;;;;10481520;28;20228;-70
2021/01/19 03:23:00;;;;;;;3.47;3.03;;;4.10;42.00;;;;;;10470888;28;20229;-70
2021/01/19 03:28:02;;;;;;;3.30;3.00;;;4.10;42.30;;;;;;10473421;28;20258;-70
2021/01/19 03:33:05;;;;;;;3.17;2.87;;;4.00;42.10;;;;;;10466662;28;20282;-70
2021/01/19 03:38:08;;;;;;;3.43;3.13;;;4.00;42.00;;;;;;10477005;28;20729;-70
2021/01/19 03:43:10;;;;;;;4.10;3.00;;;4.00;42.20;;;;;;10477759;28;20224;-70
2021/01/19 03:48:13;;;;;;;3.63;3.20;;;3.90;42.30;;;;;;10471038;28;20240;-70
2021/01/19 03:53:15;;;;;;;3.40;3.10;;;3.90;42.40;;;;;;10482248;28;20236;-70
2021/01/19 03:58:18;;;;;;;3.47;3.07;;;3.80;42.40;;;;;;10472388;28;20841;-69
2021/01/19 04:03:21;;;;;;;3.40;2.90;;;3.80;42.40;;;;;;10466394;28;20228;-70
2021/01/19 04:08:23;;;;;;;3.97;3.00;;;3.80;42.40;;;;;;10478701;28;20228;-70
2021/01/19 04:13:25;;;;;;;3.93;2.90;;;3.70;42.30;;;;;;10473511;28;20230;-70
2021/01/19 04:18:28;;;;;;;3.47;3.17;;;3.70;42.40;;;;;;10478971;28;20284;-70
2021/01/19 04:23:30;;;;;;;3.47;3.17;;;3.80;42.20;;;;;;10477851;28;20230;-69
2021/01/19 04:28:33;;;;;;;4.07;3.53;;;3.70;41.90;;;;;;10477054;28;20225;-69
2021/01/19 04:33:36;;;;;;;4.53;3.33;;;3.70;41.70;;;;;;10474980;28;20311;-69
2021/01/19 04:38:38;;;;;;;4.47;3.93;;;3.70;41.70;;;;;;10477529;28;20648;-70
2021/01/19 04:43:41;;;;;;;3.70;3.40;;;3.60;41.60;;;;;;10475631;28;20255;-70
2021/01/19 04:48:45;;;;;;;4.30;3.90;;;3.60;41.60;;;;;;10467697;28;20221;-69
2021/01/19 04:53:57;;;;;;;4.50;4.10;;;3.60;41.60;;;;;;10478759;28;20220;-69
2021/01/19 04:58:59;;;;;;;5.07;4.60;;;3.60;41.60;;;;;;10471991;28;20474;-70
2021/01/19 05:04:33;;;;;;;5.17;4.67;;;3.40;41.60;;;;;;10472278;28;20243;-71
2021/01/19 05:09:36;;;;;;;5.30;4.60;;;3.40;41.90;;;;;;10477928;28;20227;-70
2021/01/19 05:14:39;;;;;;;5.17;4.67;;;3.30;41.90;;;;;;10472311;28;20218;-70
2021/01/19 05:19:44;;;;;;;6.63;5.13;;;3.30;42.00;;;;;;10481793;28;20220;-70
2021/01/19 05:24:47;;;;;;;5.23;4.80;;;3.20;42.10;;;;;;10476753;28;20216;-69
2021/01/19 05:29:59;;;;;;;5.40;4.90;;;3.20;42.20;;;;;;10467049;28;20228;-69
2021/01/19 05:35:15;;;;;;;5.73;5.13;;;3.20;42.30;;;;;;10470423;28;20246;-69
2021/01/19 05:40:17;;;;;;;5.83;5.20;;;3.10;42.30;;;;;;10477866;28;20224;-69
2021/01/19 05:45:19;;;;;;;5.83;5.23;;;3.10;43.10;;;;;;10473672;28;20216;-69
2021/01/19 05:50:23;;;;;;;7.67;5.97;;;3.00;42.40;;;;;;10485337;28;20711;-69
2021/01/19 05:55:26;;;;;;;5.93;5.43;;;3.10;42.40;;;;;;10474646;28;20224;-69
2021/01/19 06:00:31;;;;;;;7.13;6.40;;;3.00;42.30;;;;;;10479861;28;20704;-69
2021/01/19 06:05:34;;;;;;;6.47;5.87;;;3.00;42.40;;;;;;10480815;28;20311;-69
2021/01/19 06:10:36;;;;;;;6.30;5.70;;;3.00;42.30;;;;;;10482516;28;20230;-69
2021/01/19 06:15:39;;;;;;;6.87;5.63;;;2.90;42.30;;;;;;10476907;28;20291;-69
2021/01/19 06:20:43;;;;;;;6.17;5.37;;;3.00;42.40;;;;;;10478698;28;20719;-69
2021/01/19 06:25:45;;;;;;;6.70;5.47;;;2.80;42.30;;;;;;10483810;28;20574;-69
2021/01/19 06:30:47;;;;;;;6.53;5.47;;;3.00;42.50;;;;;;10474913;28;20712;-69
2021/01/19 06:35:55;;;;;;;7.40;6.63;;;2.80;42.40;;;;;;10484934;28;20220;-69
2021/01/19 06:41:01;;;;;;;7.80;6.00;;;2.80;42.50;;;;;;10478043;28;20243;-69
2021/01/19 06:46:08;;;;;;;6.17;5.60;;;2.80;42.40;;;;;;10471683;28;20598;-69
2021/01/19 06:51:12;;;;;;;7.33;5.83;;;2.80;42.40;;;;;;10479947;28;20779;-69
2021/01/19 06:56:16;;;;;;;8.10;6.63;;;2.90;42.40;;;;;;10480257;28;20224;-69
2021/01/19 07:01:19;;;;;;;6.97;5.90;;;2.60;42.30;;;;;;10482032;28;20680;-69
2021/01/19 07:06:47;;;;;;;7.60;6.33;;;2.60;42.30;;;;;;10475035;28;20258;-69
2021/01/19 07:12:10;;;;;;;6.97;6.27;;;2.50;42.50;;;;;;10475975;28;20235;-69
2021/01/19 07:17:17;;;;;;;7.27;5.83;;;2.40;42.50;;;;;;10477374;28;20667;-69
2021/01/19 07:22:38;;;;;;;6.70;6.00;;;2.50;42.50;;;;;;10465464;28;20250;-69
2021/01/19 07:27:41;;;;;;;6.33;5.73;;;2.50;42.50;;;;;;10475315;28;20727;-69
2021/01/19 07:32:47;;;;;;;9.07;6.50;;;2.50;42.50;;;;;;10474301;28;20587;-69
2021/01/19 07:37:58;;;;;;;6.97;6.27;;;2.60;42.50;;;;;;10478750;28;20223;-69
2021/01/19 07:43:00;;;;;;;7.27;6.53;;;2.60;42.50;;;;;;10472468;28;20224;-68
2021/01/19 07:48:07;;;;;;;6.90;5.97;;;2.60;42.40;;;;;;10472202;28;20732;-70
2021/01/19 07:53:11;;;;;;;8.70;7.17;;;2.70;42.60;;;;;;10480258;28;20324;-68
2021/01/19 07:58:17;;;;;;;8.90;7.93;;;2.70;42.50;;;;;;10469241;28;20216;-69
2021/01/19 08:03:27;;;;;;;7.10;6.33;;;2.80;42.60;;;;;;10480289;28;20224;-70
2021/01/19 08:08:38;;;;;;;5.97;5.37;;;2.90;42.60;;;;;;10469136;28;20733;-70
2021/01/19 08:13:41;;;;;;;7.50;6.17;;;3.00;42.60;;;;;;10473277;28;20232;-70
2021/01/19 08:18:43;;;;;;;6.10;5.60;;;3.00;42.50;;;;;;10482111;28;20235;-69
2021/01/19 08:23:47;;;;;;;5.53;5.03;;;3.10;42.50;;;;;;10473714;28;20256;-69
2021/01/19 08:28:49;;;;;;;5.43;4.83;;;3.10;42.40;;;;;;10481270;28;20277;-70
2021/01/19 08:33:51;;;;;;;5.27;4.77;;;3.20;42.40;;;;;;10475208;28;20224;-70
2021/01/19 08:38:57;;;;;;;5.70;5.20;;;3.20;42.30;;;;;;10480756;28;20224;-70
2021/01/19 08:44:00;;;;;;;9.83;7.67;;;3.40;42.40;;;;;;10468489;28;20494;-70
2021/01/19 08:49:04;;;;;;;7.30;6.10;;;3.30;42.40;;;;;;10475701;28;20688;-70
2021/01/19 08:54:09;;;;;;;6.30;5.67;;;3.30;42.20;;;;;;10478643;28;20569;-70
2021/01/19 08:59:12;;;;;;;6.17;5.57;;;3.40;42.30;;;;;;10477192;28;20229;-70
2021/01/19 09:04:23;;;;;;;5.73;5.23;;;3.40;42.40;;;;;;10475619;28;20240;-70
2021/01/19 09:09:27;;;;;;;5.60;4.93;;;3.50;42.50;;;;;;10463877;28;20239;-70
2021/01/19 09:14:30;;;;;;;6.10;5.47;;;3.60;42.50;;;;;;10472200;28;20255;-70
2021/01/19 09:19:33;;;;;;;5.90;5.33;;;3.70;42.60;;;;;;10474057;28;20228;-70
2021/01/19 09:24:37;;;;;;;5.50;4.90;;;3.80;42.50;;;;;;10472860;28;20613;-70
2021/01/19 09:29:39;;;;;;;5.63;5.13;;;3.90;42.40;;;;;;10472023;28;20220;-70
2021/01/19 09:34:43;;;;;;;5.87;5.27;;;3.90;42.40;;;;;;10476388;28;20243;-70
2021/01/19 09:39:46;;;;;;;6.30;5.23;;;4.00;42.20;;;;;;10477584;28;20224;-70
2021/01/19 09:44:49;;;;;;;7.03;6.33;;;4.10;42.40;;;;;;10486690;28;20728;-69
2021/01/19 09:49:54;;;;;;;6.07;5.57;;;4.10;42.20;;;;;;10481716;28;20591;-70
2021/01/19 09:55:10;;;;;;;6.80;6.10;;;4.20;42.20;;;;;;10485012;28;20232;-70
2021/01/19 10:00:13;;;;;;;5.50;5.00;;;4.30;42.20;;;;;;10485124;28;20696;-70
2021/01/19 10:05:22;;;;;;;5.90;5.33;;;4.50;42.30;;;;;;10480543;28;20236;-70
2021/01/19 10:10:25;;;;;;;5.97;5.47;;;4.60;42.10;;;;;;10480102;28;20235;-68
2021/01/19 10:15:27;;;;;;;5.73;5.23;;;4.70;42.10;;;;;;10474233;28;20217;-67
2021/01/19 10:20:34;;;;;;;6.20;5.60;;;4.80;43.10;;;;;;10477319;28;20221;-67
2021/01/19 10:25:37;;;;;;;6.30;5.70;;;5.00;41.90;;;;;;10481981;28;20223;-68
2021/01/19 10:30:42;;;;;;;5.73;5.23;;;5.00;41.90;;;;;;10481257;28;20228;-68
2021/01/19 10:35:46;;;;;;;7.00;5.73;;;5.10;42.20;;;;;;10482036;28;20220;-68
2021/01/19 10:40:49;;;;;;;6.00;5.50;;;5.10;41.90;;;;;;10478902;28;20220;-68
2021/01/19 10:45:52;;;;;;;6.40;5.80;;;5.20;41.70;;;;;;10482143;28;20224;-68
2021/01/19 10:50:54;;;;;;;6.27;5.63;;;5.20;41.80;;;;;;10483782;28;20266;-68
2021/01/19 10:55:57;;;;;;;5.73;5.23;;;5.20;41.80;;;;;;10481453;28;20233;-68
2021/01/19 11:01:00;;;;;;;5.90;5.30;;;5.20;41.70;;;;;;10471301;28;20314;-68
2021/01/19 11:06:02;;;;;;;6.00;5.40;;;5.30;41.90;;;;;;10474683;28;20216;-69
2021/01/19 11:11:06;;;;;;;5.93;5.37;;;5.40;41.80;;;;;;10464282;28;20228;-69
2021/01/19 11:16:08;;;;;;;6.30;5.70;;;5.50;41.60;;;;;;10468295;28;20239;-69
2021/01/19 11:21:11;;;;;;;6.40;5.80;;;5.60;41.70;;;;;;10475524;28;20225;-68
2021/01/19 11:26:16;;;;;;;6.13;5.53;;;5.70;41.60;;;;;;10470956;28;20304;-68
2021/01/19 11:31:21;;;;;;;7.00;6.40;;;5.80;41.50;;;;;;10479906;28;20648;-70
2021/01/19 11:36:25;;;;;;;7.13;5.77;;;5.90;41.20;;;;;;10479901;28;20230;-70
2021/01/19 11:41:29;;;;;;;5.80;5.20;;;5.90;40.80;;;;;;10475151;28;20255;-70
2021/01/19 11:46:32;;;;;;;6.53;5.93;;;5.90;40.80;;;;;;10476782;28;20728;-69
2021/01/19 11:51:36;;;;;;;6.10;5.50;;;5.80;40.80;;;;;;10475083;28;20240;-69
2021/01/19 11:56:44;;;;;;;5.53;5.03;;;5.80;40.70;;;;;;10482043;28;20246;-69
2021/01/19 12:01:54;;;;;;;6.63;5.97;;;5.70;40.80;;;;;;10474252;28;20228;-69
2021/01/19 12:06:56;;;;;;;10.03;7.30;;;5.70;40.50;;;;;;10484661;28;20232;-69
2021/01/19 12:11:59;;;;;;;9.93;7.97;;;5.80;41.00;;;;;;10477280;28;20228;-69
2021/01/19 12:17:02;;;;;;;7.67;6.30;;;5.80;40.70;;;;;;10427433;28;20240;-70
2021/01/19 12:22:05;;;;;;;5.37;4.83;;;5.80;41.00;;;;;;10431814;28;20287;-70
2021/01/19 12:27:09;;;;;;;6.63;4.67;;;5.80;40.90;;;;;;10417404;28;20233;-69
2021/01/19 12:32:11;;;;;;;5.20;4.70;;;5.90;40.90;;;;;;10442728;28;20652;-69
2021/01/19 12:37:14;;;;;;;7.27;6.17;;;5.90;40.90;;;;;;10432221;28;20316;-69
2021/01/19 12:42:17;;;;;;;8.20;6.57;;;6.00;40.80;;;;;;10446644;28;20244;-68
2021/01/19 12:47:19;;;;;;;5.53;5.00;;;6.10;40.60;;;;;;10434438;28;20225;-68
2021/01/19 12:52:22;;;;;;;5.33;4.83;;;6.10;40.60;;;;;;10431663;28;20233;-68
2021/01/19 12:57:25;;;;;;;5.80;5.07;;;6.10;40.60;;;;;;10430075;28;20231;-68
2021/01/19 13:02:28;;;;;;;15.50;11.50;;;6.10;40.30;;;;;;10443744;28;20225;-72
2021/01/19 13:07:30;;;;;;;5.27;4.77;;;6.10;40.60;;;;;;10437517;28;20305;-72
2021/01/19 13:12:33;;;;;;;5.20;4.77;;;6.20;40.70;;;;;;10483324;28;20227;-73
2021/01/19 13:17:37;;;;;;;4.77;4.37;;;6.20;40.60;;;;;;10483274;28;20232;-75
2021/01/19 13:22:40;;;;;;;4.03;3.63;;;6.20;40.70;;;;;;10484015;28;20220;-72
2021/01/19 13:27:43;;;;;;;3.80;3.43;;;6.20;40.60;;;;;;10491106;28;20213;-72
2021/01/19 13:32:45;;;;;;;3.77;3.37;;;6.30;40.40;;;;;;10490299;28;20260;-72
2021/01/19 13:37:48;;;;;;;3.83;3.53;;;6.30;40.50;;;;;;10487845;28;20245;-73
2021/01/19 13:42:52;;;;;;;4.27;3.60;;;6.30;40.60;;;;;;10489087;28;20221;-73
2021/01/19 13:47:55;;;;;;;4.87;3.13;;;6.30;40.40;;;;;;10494537;28;20231;-72
2021/01/19 13:52:57;;;;;;;4.13;3.73;;;6.40;40.60;;;;;;10483716;28;20666;-73
2021/01/19 13:58:01;;;;;;;3.70;2.87;;;6.40;40.60;;;;;;10485585;28;20586;-73
2021/01/19 14:03:05;;;;;;;3.27;2.97;;;6.40;40.60;;;;;;10492046;28;20250;-72
2021/01/19 14:08:11;;;;;;;2.70;2.43;;;6.40;40.60;;;;;;10495346;28;20231;-72
2021/01/19 14:13:14;;;;;;;2.30;2.10;;;6.50;40.60;;;;;;10482329;28;20708;-72
2021/01/19 14:18:17;;;;;;;2.77;2.53;;;6.50;40.40;;;;;;10490046;28;20221;-72
2021/01/19 14:23:19;;;;;;;2.10;2.00;;;6.50;40.50;;;;;;10490545;28;20262;-72
2021/01/19 14:28:22;;;;;;;2.17;2.03;;;6.60;40.60;;;;;;10488439;28;20696;-72
2021/01/19 14:33:25;;;;;;;2.50;2.30;;;6.60;40.50;;;;;;10485850;28;20230;-73
2021/01/19 14:38:27;;;;;;;2.67;2.40;;;6.50;40.70;;;;;;10486058;28;20716;-72
2021/01/19 14:43:31;;;;;;;2.60;2.40;;;6.50;40.90;;;;;;10487351;28;20231;-73
2021/01/19 14:48:34;;;;;;;3.13;2.20;;;6.50;41.00;;;;;;10481074;28;20235;-73
2021/01/19 14:53:36;;;;;;;6.67;4.77;;;6.50;41.00;;;;;;10491390;28;20755;-73
2021/01/19 14:58:39;;;;;;;3.67;2.93;;;6.40;41.10;;;;;;10484939;28;20232;-73
2021/01/19 15:03:42;;;;;;;4.00;3.30;;;6.40;41.30;;;;;;10486483;28;20265;-73
2021/01/19 15:08:44;;;;;;;2.80;2.60;;;6.30;41.50;;;;;;10487061;28;20228;-73
2021/01/19 15:13:47;;;;;;;2.10;2.00;;;6.30;41.60;;;;;;10483109;28;20234;-73
2021/01/19 15:18:52;;;;;;;2.10;2.00;;;6.30;41.60;;;;;;10489136;28;20607;-73
2021/01/19 15:23:54;;;;;;;2.87;2.20;;;6.30;41.60;;;;;;10492183;28;20304;-73
2021/01/19 15:28:57;;;;;;;2.87;2.67;;;6.30;41.80;;;;;;10485211;28;20307;-73
2021/01/19 15:34:00;;;;;;;3.27;2.97;;;6.30;41.80;;;;;;10485470;28;20216;-73
2021/01/19 15:39:02;;;;;;;2.53;2.20;;;6.20;41.80;;;;;;10484055;28;20232;-73
2021/01/19 15:44:06;;;;;;;2.80;2.60;;;6.20;41.90;;;;;;10481624;28;20228;-73
2021/01/19 15:49:10;;;;;;;2.77;2.57;;;6.20;42.00;;;;;;10482702;28;20238;-73
2021/01/19 15:54:13;;;;;;;2.83;2.33;;;6.20;42.10;;;;;;10484991;28;20235;-73
2021/01/19 15:59:18;;;;;;;2.97;2.70;;;6.20;42.10;;;;;;10480075;28;20629;-74
2021/01/19 16:04:21;;;;;;;2.60;2.40;;;6.20;42.20;;;;;;10477990;28;20220;-74
2021/01/19 16:09:23;;;;;;;2.37;2.17;;;6.20;42.30;;;;;;10483886;28;20722;-74
2021/01/19 16:14:26;;;;;;;2.70;2.50;;;6.20;42.20;;;;;;10485120;28;20903;-73
2021/01/19 16:19:28;;;;;;;3.17;2.93;;;6.10;42.30;;;;;;10486189;28;20603;-73
2021/01/19 16:24:30;;;;;;;3.87;3.50;;;6.20;42.40;;;;;;10488153;28;20647;-73
2021/01/19 16:29:34;;;;;;;5.13;4.60;;;6.20;42.40;;;;;;10480942;28;20221;-73
2021/01/19 16:34:36;;;;;;;3.47;3.17;;;6.20;42.40;;;;;;10481203;28;20219;-73
2021/01/19 16:39:38;;;;;;;3.00;2.70;;;6.20;42.50;;;;;;10482580;28;21011;-73
2021/01/19 16:44:41;;;;;;;3.20;2.90;;;6.20;42.40;;;;;;10481936;28;20220;-73
2021/01/19 16:49:44;;;;;;;3.03;2.40;;;6.20;43.20;;;;;;10479051;28;20716;-73
2021/01/19 16:54:47;;;;;;;2.43;2.27;;;6.20;42.60;;;;;;10479678;28;20223;-73
2021/01/19 16:59:50;;;;;;;2.30;2.07;;;6.30;42.60;;;;;;10481350;28;20324;-73
2021/01/19 17:04:52;;;;;;;2.50;2.30;;;6.30;42.60;;;;;;10479932;28;20231;-73
2021/01/19 17:09:54;;;;;;;2.60;2.40;;;6.40;42.60;;;;;;10483810;28;20242;-72
2021/01/19 17:14:58;;;;;;;2.33;2.23;;;6.40;42.60;;;;;;10487340;28;20258;-73
2021/01/19 17:20:00;;;;;;;2.53;2.33;;;6.50;42.50;;;;;;10490265;28;20251;-73
2021/01/19 17:25:03;;;;;;;5.57;3.70;;;6.60;42.50;;;;;;10490182;28;20217;-72
2021/01/19 17:30:08;;;;;;;2.63;2.43;;;6.60;42.40;;;;;;10499241;28;20246;-72
2021/01/19 17:35:11;;;;;;;3.33;2.50;;;6.70;42.30;;;;;;10489387;28;20316;-72
2021/01/19 17:40:13;;;;;;;3.17;2.83;;;6.70;42.40;;;;;;10485385;28;20563;-72
2021/01/19 17:45:17;;;;;;;3.10;2.90;;;6.80;42.50;;;;;;10495622;28;20229;-72
2021/01/19 17:50:19;;;;;;;2.60;2.40;;;6.70;42.60;;;;;;10498555;28;20236;-72
2021/01/19 17:55:22;;;;;;;2.30;2.10;;;6.80;42.50;;;;;;10491424;28;20233;-72
2021/01/19 18:00:26;;;;;;;2.20;2.00;;;6.80;42.50;;;;;;10495953;28;20598;-72
2021/01/19 18:05:28;;;;;;;2.57;2.37;;;6.90;42.30;;;;;;10481800;28;20226;-72
2021/01/19 18:10:30;;;;;;;3.07;2.80;;;6.90;42.40;;;;;;10488409;28;20228;-72
2021/01/19 18:15:33;;;;;;;2.23;2.03;;;7.00;42.40;;;;;;10493356;28;20230;-72
2021/01/19 18:20:35;;;;;;;1.93;1.83;;;7.00;42.20;;;;;;10487141;28;20315;-72
2021/01/19 18:25:37;;;;;;;2.30;2.13;;;7.10;42.30;;;;;;10490137;28;20723;-72
2021/01/19 18:30:40;;;;;;;2.37;1.90;;;7.10;42.20;;;;;;10481431;28;20315;-72
2021/01/19 18:35:43;;;;;;;1.83;1.73;;;7.10;42.40;;;;;;10486977;28;20235;-72
2021/01/19 18:40:45;;;;;;;2.07;1.90;;;7.20;42.10;;;;;;10484082;28;20232;-72
2021/01/19 18:45:48;;;;;;;2.10;1.90;;;7.20;41.90;;;;;;10484998;28;20220;-72
2021/01/19 18:50:50;;;;;;;2.33;1.97;;;7.30;41.70;;;;;;10496337;28;20226;-72
2021/01/19 18:55:52;;;;;;;2.07;1.90;;;7.30;41.70;;;;;;10486180;28;20595;-72
2021/01/19 19:00:56;;;;;;;2.27;1.97;;;7.30;41.70;;;;;;10484893;28;20240;-72
2021/01/19 19:05:58;;;;;;;1.80;1.70;;;7.40;42.30;;;;;;10480182;28;20797;-72
2021/01/19 19:11:00;;;;;;;1.80;1.70;;;7.40;41.60;;;;;;10483501;28;20220;-72
2021/01/19 19:16:03;;;;;;;1.90;1.80;;;7.40;41.70;;;;;;10441431;28;20351;-72
2021/01/19 19:21:06;;;;;;;1.97;1.83;;;7.40;41.70;;;;;;10446132;28;20239;-72
2021/01/19 19:26:09;;;;;;;1.47;1.30;;;7.40;41.70;;;;;;10441093;28;20225;-71
2021/01/19 19:31:13;;;;;;;2.50;2.30;;;7.50;41.70;;;;;;10441523;28;20267;-71
2021/01/19 19:36:15;;;;;;;1.70;1.60;;;7.50;41.70;;;;;;10440603;28;20222;-72
2021/01/19 19:41:20;;;;;;;1.73;1.60;;;7.50;41.80;;;;;;10436151;28;20229;-72
2021/01/19 19:46:25;;;;;;;1.60;1.50;;;7.50;41.80;;;;;;10444135;28;20235;-72
2021/01/19 19:51:30;;;;;;;1.93;1.47;;;7.50;41.80;;;;;;10438034;28;20895;-72
2021/01/19 19:56:35;;;;;;;1.70;1.60;;;7.50;41.80;;;;;;10435080;28;20229;-71
2021/01/19 20:01:38;;;;;;;1.60;1.50;;;7.50;41.80;;;;;;10441530;28;20229;-72
2021/01/19 20:06:40;;;;;;;1.37;1.30;;;7.60;41.90;;;;;;10442895;28;20248;-72
2021/01/19 20:11:43;;;;;;;1.83;1.43;;;7.60;42.00;;;;;;10440763;28;20271;-72
2021/01/19 20:16:46;;;;;;;1.40;1.30;;;7.60;42.70;;;;;;10445724;28;20244;-72
2021/01/19 20:21:49;;;;;;;1.60;1.50;;;7.60;41.90;;;;;;10436412;28;20236;-73
2021/01/19 20:26:51;;;;;;;1.70;1.60;;;7.60;41.90;;;;;;10437048;28;20705;-72
2021/01/19 20:31:58;;;;;;;3.13;1.53;;;7.60;41.90;;;;;;10441479;28;20239;-72
2021/01/19 20:37:01;;;;;;;2.03;1.93;;;7.60;41.60;;;;;;10442327;28;20723;-72
2021/01/19 20:42:09;;;;;;;1.80;1.70;;;7.60;41.90;;;;;;10443250;28;20308;-72
2021/01/19 20:47:12;;;;;;;3.57;1.80;;;7.50;41.80;;;;;;10442951;28;20236;-72
2021/01/19 20:52:14;;;;;;;1.60;1.50;;;7.40;42.00;;;;;;10443026;28;20619;-72
2021/01/19 20:57:17;;;;;;;1.70;1.50;;;7.40;42.60;;;;;;10437798;28;20663;-72
2021/01/19 21:02:20;;;;;;;3.30;1.60;;;7.40;41.90;;;;;;10444007;28;20233;-73
2021/01/19 21:07:22;;;;;;;1.53;1.43;;;7.40;41.80;;;;;;10443465;28;20938;-73
2021/01/19 21:12:34;;;;;;;1.50;1.40;;;7.40;41.80;;;;;;10439783;28;20225;-73
2021/01/19 21:17:37;;;;;;;1.43;1.33;;;7.40;41.90;;;;;;10439784;28;20229;-73
2021/01/19 21:22:40;;;;;;;1.40;1.30;;;7.40;41.80;;;;;;10446792;28;20239;-73
2021/01/19 21:27:46;;;;;;;1.40;1.30;;;7.40;41.80;;;;;;10440113;28;20352;-73
2021/01/19 21:32:51;;;;;;;1.23;1.20;;;7.40;41.70;;;;;;10441752;28;20319;-74
2021/01/19 21:37:54;;;;;;;1.37;1.13;;;7.40;41.60;;;;;;10440050;28;20229;-73
2021/01/19 21:42:58;;;;;;;1.20;1.10;;;7.40;41.80;;;;;;10440136;28;20251;-73
2021/01/19 21:48:01;;;;;;;1.40;1.30;;;7.50;41.70;;;;;;10443869;28;20221;-73
2021/01/19 21:53:04;;;;;;;1.20;1.10;;;7.60;41.60;;;;;;10445653;28;20229;-73
2021/01/19 21:58:09;;;;;;;1.10;1.00;;;7.60;41.50;;;;;;10439557;28;20221;-70
2021/01/19 22:03:12;;;;;;;1.17;1.10;;;7.70;41.10;;;;;;10429225;28;20258;-74
2021/01/19 22:08:15;;;;;;;1.50;1.07;;;7.70;41.10;;;;;;10452101;28;20217;-73
2021/01/19 22:13:17;;;;;;;1.20;1.10;;;7.70;40.90;;;;;;10433705;28;20225;-74
2021/01/19 22:18:20;;;;;;;1.20;1.17;;;7.80;40.80;;;;;;10439186;28;20240;-73
2021/01/19 22:23:22;;;;;;;1.50;1.40;;;7.80;40.70;;;;;;10440679;28;20229;-73
2021/01/19 22:28:24;;;;;;;1.40;1.30;;;7.80;40.90;;;;;;10452044;28;20225;-73
2021/01/19 22:33:28;;;;;;;1.37;1.27;;;7.80;40.70;;;;;;10441294;28;20597;-73
2021/01/19 22:38:30;;;;;;;1.60;1.50;;;7.70;40.60;;;;;;10439931;28;20254;-73
2021/01/19 22:43:32;;;;;;;1.37;1.27;;;7.60;40.60;;;;;;10440620;28;20263;-74
2021/01/19 22:48:37;;;;;;;1.53;1.10;;;7.50;40.70;;;;;;10436220;28;20221;-73
2021/01/19 22:53:40;;;;;;;1.60;1.50;;;7.40;40.70;;;;;;10437059;28;20243;-73
2021/01/19 22:58:42;;;;;;;1.37;1.27;;;7.30;40.80;;;;;;10427206;28;20224;-73
2021/01/19 23:03:45;;;;;;;4.37;3.70;;;7.20;40.90;;;;;;10444194;28;20231;-73
2021/01/19 23:08:47;;;;;;;9.83;6.13;;;7.10;40.90;;;;;;10437350;28;20232;-73
2021/01/19 23:13:49;;;;;;;2.50;2.00;;;7.00;41.00;;;;;;10430740;28;20228;-73
2021/01/19 23:18:53;;;;;;;1.93;1.40;;;6.90;41.00;;;;;;10431210;28;20221;-74
2021/01/19 23:23:55;;;;;;;2.33;1.40;;;6.90;40.90;;;;;;10435865;28;20270;-73
2021/01/19 23:28:57;;;;;;;1.90;1.70;;;6.80;40.70;;;;;;10434115;28;20229;-74
2021/01/19 23:34:00;;;;;;;1.30;1.20;;;6.80;41.50;;;;;;10435506;28;20229;-73
2021/01/19 23:39:03;;;;;;;1.77;1.60;;;6.70;40.90;;;;;;10438819;28;20229;-73
2021/01/19 23:44:05;;;;;;;1.97;1.80;;;6.60;40.80;;;;;;10436071;28;20229;-74
2021/01/19 23:49:08;;;;;;;2.43;2.23;;;6.50;40.70;;;;;;10426690;28;20225;-73
2021/01/19 23:54:11;;;;;;;2.07;1.93;;;6.50;40.70;;;;;;10436591;28;20774;-73
2021/01/19 23:59:13;;;;;;;2.47;2.27;;;6.30;40.70;;;;;;10436109;28;20228;-74
